Latest Coastal Weather Observations for Warruwi

IDD60701

Issued at 9:25 am CST Sunday 23 November 2014 (issued every 10 minutes, with the page automatically refreshed every 10 minutes)

About coastal observations | Map of coastal stations | Coastal observations for NT | Marine services | Other Formats
Station Details ID: 014401 Name: WARRUWI AIRPORT Lat: -11.65 Lon: 133.38 Height: 19.2 m
Data from the previous 72 hours. | See also: Recent months at Warruwi
Date/Time
CST
Temp

°C
Wind Pressure Rain
since 9am
mm
Weather Cloud Vis
km
Sea
Height
m
Swell
Dir
 
Speed
knots
Gust
knots
hPa Trend Height
m
Period
s
Dir
23/09:00am 31.1 E 6 8 1012.3 - 0.0 - - - - - - -
23/08:30am 31.2 E 4 7 1012.3 - 0.0 - - - - - - -
23/08:00am 30.5 ENE 4 8 1011.9 - 0.0 - - - - - - -
23/07:30am 29.7 ENE 4 7 1011.7 - 0.0 - - - - - - -
23/07:00am 29.3 NE 3 7 1011.6 - 0.0 - - - - - - -
23/06:30am 27.7 CALM 0 0 1011.4 - 0.0 - - - - - - -
23/06:00am 27.3 CALM 0 2 1011.0 - 0.0 - - - - - - -
23/05:30am 27.8 NE 2 4 1010.8 - 0.0 - - - - - - -
23/05:00am 28.1 NE 2 5 1010.6 - 0.0 - - - - - - -
23/04:30am 28.0 NE 2 5 1010.2 - 0.0 - - - - - - -
23/04:00am 28.2 NE 4 7 1010.1 - 0.0 - - - - - - -
23/03:30am 28.2 NE 3 6 1010.2 - 0.0 - - - - - - -
23/03:00am 28.2 NNE 3 5 1010.3 - 0.0 - - - - - - -
23/02:30am 28.2 ENE 3 6 1010.3 - 0.0 - - - - - - -
23/02:00am 28.2 NE 3 6 1010.2 - 0.0 - - - - - - -
23/01:30am 28.1 NE 2 5 1010.2 - 0.0 - - - - - - -
23/01:00am 27.9 NNE 2 3 1010.6 - 0.0 - - - - - - -
23/12:30am 28.3 NNE 3 5 1010.6 - 0.0 - - - - - - -
23/12:00am 27.8 ENE 2 3 1010.6 - 0.0 - - - - - - -
 
Date/Time
CST
Temp

°C
Wind Pressure Rain
since 9am
mm
Weather Cloud Vis
km
Sea
Height
m
Swell
Dir
 
Speed
knots
Gust
knots
hPa Trend Height
m
Period
s
Dir
22/11:30pm 27.8 NNE 1 2 1010.6 - 0.0 - - - - - - -
22/11:00pm 28.0 NNE 2 3 1010.7 - 0.0 - - - - - - -
22/10:30pm 28.3 NNE 2 4 1010.8 - 0.0 - - - - - - -
22/10:00pm 28.5 NNE 2 4 1010.9 - 0.0 - - - - - - -
22/09:30pm 28.5 NNE 3 5 1010.9 - 0.0 - - - - - - -
22/09:00pm 28.7 NNE 3 6 1010.7 - 0.0 - - - - - - -
22/08:30pm 28.9 NNE 4 6 1010.4 - 0.0 - - - - - - -
22/08:00pm 28.9 NNE 4 7 1010.3 - 0.0 - - - - - - -
22/07:30pm 29.1 NNE 4 8 1009.9 - 0.0 - - - - - - -
22/07:00pm 29.2 NE 5 9 1009.6 - 0.0 - - - - - - -
22/06:30pm 29.5 NNE 6 9 1009.3 - 0.0 - - - - - - -
22/06:00pm 30.6 NE 5 10 1009.1 - 0.0 - - - - - - -
22/05:30pm 30.9 NE 7 12 1009.0 - 0.0 - - - - - - -
22/05:00pm 31.4 NE 7 11 1008.9 - 0.0 - - - - - - -
22/04:30pm 31.7 ENE 7 11 1008.8 - 0.0 - - - - - - -
22/04:00pm 31.9 NE 7 11 1009.0 - 0.0 - - - - - - -
22/03:30pm 33.0 NNE 8 14 1009.1 - 0.0 - - - - - - -
22/03:00pm 32.9 ENE 8 13 1009.6 - 0.0 - - - - - - -
22/02:30pm 32.6 E 10 15 1009.7 - 0.0 - - - - - - -
22/02:00pm 32.5 ENE 8 12 1010.3 - 0.0 - - - - - - -
22/01:30pm 32.5 ENE 9 14 1010.6 - 0.0 - - - - - - -
22/01:00pm 32.5 E 9 13 1011.1 - 0.0 - - - - - - -
22/12:30pm 32.4 E 9 12 1011.4 - 0.0 - - - - - - -
22/12:00pm 32.4 E 8 12 1011.7 - 0.0 - - - - - - -
22/11:30am 32.4 E 7 11 1011.8 - 0.0 - - - - - - -
22/11:00am 31.7 E 7 11 1012.0 - 0.0 - - - - - - -
22/10:30am 32.0 E 7 10 1012.2 - 0.0 - - - - - - -
22/10:00am 31.4 E 7 10 1012.3 - 0.0 - - - - - - -
22/09:30am 30.8 E 7 9 1012.2 - 0.0 - - - - - - -
22/09:00am 30.9 E 5 8 1012.1 - 0.0 - - - - - - -
22/08:30am 30.9 E 6 10 1011.9 - 0.0 - - - - - - -
22/08:00am 30.2 ENE 5 8 1011.7 - 0.0 - - - - - - -
22/07:30am 29.6 ENE 4 7 1011.4 - 0.0 - - - - - - -
22/07:00am 29.0 NE 3 6 1011.3 - 0.0 - - - - - - -
22/06:30am 28.3 NE 4 6 1010.9 - 0.0 - - - - - - -
22/06:00am 28.2 NE 4 7 1010.7 - 0.0 - - - - - - -
22/05:30am 28.1 NE 3 7 1010.4 - 0.0 - - - - - - -
22/05:00am 28.3 NE 4 8 1010.2 - 0.0 - - - - - - -
22/04:30am 28.0 NE 4 6 1009.7 - 0.0 - - - - - - -
22/04:00am 28.0 NE 3 5 1009.7 - 0.0 - - - - - - -
22/03:30am 28.2 NE 5 9 1009.7 - 0.0 - - - - - - -
22/03:00am 28.1 NE 4 9 1009.7 - 0.0 - - - - - - -
22/02:30am 28.0 NE 3 7 1009.7 - 0.0 - - - - - - -
22/02:00am 28.0 NNE 3 7 1009.8 - 0.0 - - - - - - -
22/01:30am 27.9 NE 2 6 1010.0 - 0.0 - - - - - - -
22/01:00am 27.7 NNE 2 4 1010.2 - 0.0 - - - - - - -
22/12:30am 27.7 NNE 2 3 1010.2 - 0.0 - - - - - - -
22/12:00am 27.5 NNE 2 3 1010.2 - 0.0 - - - - - - -
 
Date/Time
CST
Temp

°C
Wind Pressure Rain
since 9am
mm
Weather Cloud Vis
km
Sea
Height
m
Swell
Dir
 
Speed
knots
Gust
knots
hPa Trend Height
m
Period
s
Dir
21/11:30pm 27.4 NNE 1 2 1010.4 - 0.0 - - - - - - -
21/11:00pm 27.6 NNE 2 3 1010.4 - 0.0 - - - - - - -
21/10:30pm 27.5 NNE 1 2 1010.2 - 0.0 - - - - - - -
21/10:00pm 27.8 N 1 2 1009.9 - 0.0 - - - - - - -
21/09:30pm 28.1 NNE 2 4 1009.6 - 0.0 - - - - - - -
21/09:00pm 28.2 NNE 2 4 1009.5 - 0.0 - - - - - - -
21/08:30pm 28.4 NNE 3 4 1009.4 - 0.0 - - - - - - -
21/08:00pm 28.7 NE 3 5 1009.4 - 0.0 - - - - - - -
21/07:30pm 28.9 NE 3 5 1009.5 - 0.0 - - - - - - -
21/07:00pm 29.3 NE 3 5 1009.2 - 0.0 - - - - - - -
21/06:30pm 29.6 NE 4 7 1009.1 - 0.0 - - - - - - -
21/06:00pm 30.1 ENE 5 9 1009.2 - 0.0 - - - - - - -
21/05:30pm 30.9 E 7 10 1009.1 - 0.0 - - - - - - -
21/05:00pm 30.9 E 7 10 1009.0 - 0.0 - - - - - - -
21/04:30pm 31.1 E 8 11 1008.9 - 0.0 - - - - - - -
21/04:00pm 31.4 E 8 12 1009.0 - 0.0 - - - - - - -
21/03:30pm 31.7 E 8 11 1009.3 - 0.0 - - - - - - -
21/03:00pm 32.9 E 8 11 1009.2 - 0.0 - - - - - - -
21/02:30pm 32.2 NE 6 10 1009.6 - 0.0 - - - - - - -
21/02:00pm 31.8 E 9 12 1010.0 - 0.0 - - - - - - -
21/01:30pm 31.8 E 7 11 1010.3 - 0.0 - - - - - - -
21/01:00pm 31.6 ENE 8 13 1010.7 - 0.0 - - - - - - -
21/12:30pm 32.4 E 9 13 1011.0 - 0.0 - - - - - - -
21/12:00pm 32.3 ENE 7 11 1011.4 - 0.0 - - - - - - -
21/11:30am 32.5 E 8 11 1011.8 - 0.0 - - - - - - -
21/11:00am 32.1 ENE 7 11 1012.0 - 0.0 - - - - - - -
21/10:30am 31.5 E 7 10 1012.1 - 0.0 - - - - - - -
21/10:00am 31.5 E 8 12 1012.4 - 0.0 - - - - - - -
21/09:30am 31.3 E 8 11 1012.7 - 0.0 - - - - - - -
21/09:00am 31.1 E 7 10 1012.6 - 0.0 - - - - - - -
21/08:30am 30.8 E 6 10 1012.3 - 0.0 - - - - - - -
21/08:00am 29.4 ENE 5 9 1012.1 - 0.0 - - - - - - -
21/07:30am 28.8 NE 4 6 1011.7 - 0.0 - - - - - - -
21/07:00am 28.5 NNE 3 5 1011.3 - 0.0 - - - - - - -
21/06:30am 27.2 NE 2 3 1010.8 - 0.0 - - - - - - -
21/06:00am 27.0 NNE 1 2 1010.1 - 0.0 - - - - - - -
21/05:30am 27.4 NE 2 4 1009.7 - 0.0 - - - - - - -
21/05:00am 27.5 NE 1 2 1009.5 - 0.0 - - - - - - -
21/04:30am 27.8 NE 2 4 1009.3 - 0.0 - - - - - - -
21/04:00am 28.0 ENE 4 7 1009.2 - 0.0 - - - - - - -
21/03:30am 28.1 ENE 4 7 1009.3 - 0.0 - - - - - - -
21/03:00am 28.1 ENE 5 9 1009.3 - 0.0 - - - - - - -
21/02:30am 28.3 ENE 4 7 1009.6 - 0.0 - - - - - - -
21/02:00am 28.4 ENE 4 8 1009.9 - 0.0 - - - - - - -
21/01:30am 28.3 NE 4 8 1010.0 - 0.0 - - - - - - -
21/01:00am 28.4 ENE 3 8 1010.3 - 0.0 - - - - - - -
21/12:30am 28.5 ENE 4 8 1010.5 - 0.0 - - - - - - -
21/12:00am 28.5 ENE 4 8 1010.7 - 0.0 - - - - - - -
 
Date/Time
CST
Temp

°C
Wind Pressure Rain
since 9am
mm
Weather Cloud Vis
km
Sea
Height
m
Swell
Dir
 
Speed
knots
Gust
knots
hPa Trend Height
m
Period
s
Dir
20/11:30pm 28.6 NE 4 7 1010.7 - 0.0 - - - - - - -
20/11:00pm 28.7 ENE 3 7 1010.9 - 0.0 - - - - - - -
20/10:30pm 28.7 NE 4 7 1010.7 - 0.0 - - - - - - -
20/10:00pm 28.8 NE 4 9 1010.6 - 0.0 - - - - - - -
20/09:30pm 28.9 NE 4 7 1010.3 - 0.0 - - - - - - -
20/09:00pm 29.1 NE 5 9 1010.1 - 0.0 - - - - - - -
20/08:30pm 29.1 NE 5 8 1009.8 - 0.0 - - - - - - -
20/08:00pm 29.3 NE 7 11 1009.6 - 0.0 - - - - - - -
20/07:30pm 29.4 NE 5 9 1009.4 - 0.0 - - - - - - -
20/07:00pm 29.7 NE 5 9 1008.9 - 0.0 - - - - - - -
20/06:30pm 30.1 ENE 5 9 1008.7 - 0.0 - - - - - - -
20/06:00pm 31.0 NE 6 10 1008.6 - 0.0 - - - - - - -
20/05:30pm 31.3 NE 5 9 1008.3 - 0.0 - - - - - - -
20/05:00pm 32.3 ENE 6 10 1008.3 - 0.0 - - - - - - -
20/04:30pm 32.5 ENE 8 13 1008.4 - 0.0 - - - - - - -
20/04:00pm 33.2 ENE 7 12 1008.7 - 0.0 - - - - - - -
20/03:30pm 32.5 NE 8 12 1008.9 - 0.0 - - - - - - -
20/03:00pm 33.3 ENE 8 12 1009.0 - 0.0 - - - - - - -
20/02:30pm 33.1 E 8 12 1009.3 - 0.0 - - - - - - -
20/02:00pm 33.2 E 8 13 1009.6 - 0.0 - - - - - - -
20/01:30pm 32.8 E 10 12 1009.9 - 0.0 - - - - - - -
20/01:00pm 32.7 E 8 11 1010.3 - 0.0 - - - - - - -
20/12:30pm 33.0 E 8 11 1010.7 - 0.0 - - - - - - -
20/12:00pm 32.6 ESE 9 11 1011.3 - 0.0 - - - - - - -
20/11:30am 33.0 E 7 10 1012.0 - 0.0 - - - - - - -
20/11:00am 32.1 E 6 10 1012.3 - 0.0 - - - - - - -
20/10:30am 31.9 E 5 9 1012.5 - 0.0 - - - - - - -
20/10:00am 31.6 E 4 7 1012.8 - 0.0 - - - - - - -
20/09:30am 30.6 E 4 6 1012.9 - 0.0 - - - - - - -

Other Formats:

Comma delimited format used in spreadsheet applications
http://www.bom.gov.au/fwo/IDD60701/IDD60701.94139.axf

JavaScript Object Notation format (JSON) in row-major order
http://www.bom.gov.au/fwo/IDD60701/IDD60701.94139.json